sensor_id;sensor_type;location;lat;lon;timestamp;temperature;humidity
6654;DHT22;3363;50.942;7.034;2022-07-22T00:00:41;20.40;99.90
6654;DHT22;3363;50.942;7.034;2022-07-22T00:03:08;20.30;99.90
6654;DHT22;3363;50.942;7.034;2022-07-22T00:05:35;20.40;99.90
6654;DHT22;3363;50.942;7.034;2022-07-22T00:08:02;20.20;99.90
6654;DHT22;3363;50.942;7.034;2022-07-22T00:10:29;20.30;99.90
6654;DHT22;3363;50.942;7.034;2022-07-22T00:12:56;20.50;99.90
6654;DHT22;3363;50.942;7.034;2022-07-22T00:15:23;20.30;99.90
6654;DHT22;3363;50.942;7.034;2022-07-22T00:17:51;20.20;99.90
6654;DHT22;3363;50.942;7.034;2022-07-22T00:20:18;20.20;99.90
6654;DHT22;3363;50.942;7.034;2022-07-22T00:22:45;20.10;99.90
6654;DHT22;3363;50.942;7.034;2022-07-22T00:25:12;20.00;99.90
6654;DHT22;3363;50.942;7.034;2022-07-22T00:27:39;20.20;99.90
6654;DHT22;3363;50.942;7.034;2022-07-22T00:30:06;20.30;99.90
6654;DHT22;3363;50.942;7.034;2022-07-22T00:32:33;20.50;99.90
6654;DHT22;3363;50.942;7.034;2022-07-22T00:35:04;20.40;99.90
6654;DHT22;3363;50.942;7.034;2022-07-22T00:37:32;20.10;99.90
6654;DHT22;3363;50.942;7.034;2022-07-22T00:40:00;20.10;99.90
6654;DHT22;3363;50.942;7.034;2022-07-22T00:42:27;20.30;99.90
6654;DHT22;3363;50.942;7.034;2022-07-22T00:44:54;20.30;99.90
6654;DHT22;3363;50.942;7.034;2022-07-22T00:47:21;20.20;99.90
6654;DHT22;3363;50.942;7.034;2022-07-22T00:49:48;20.30;99.90
6654;DHT22;3363;50.942;7.034;2022-07-22T00:52:16;20.30;99.60
6654;DHT22;3363;50.942;7.034;2022-07-22T00:54:45;20.30;99.90
6654;DHT22;3363;50.942;7.034;2022-07-22T00:57:11;20.20;99.90
6654;DHT22;3363;50.942;7.034;2022-07-22T00:59:39;20.10;99.90
6654;DHT22;3363;50.942;7.034;2022-07-22T01:02:06;20.00;99.90
6654;DHT22;3363;50.942;7.034;2022-07-22T01:04:33;20.20;99.90
6654;DHT22;3363;50.942;7.034;2022-07-22T01:07:00;20.20;99.90
6654;DHT22;3363;50.942;7.034;2022-07-22T01:09:28;20.10;99.30
6654;DHT22;3363;50.942;7.034;2022-07-22T01:11:55;20.10;99.90
6654;DHT22;3363;50.942;7.034;2022-07-22T01:14:22;20.10;99.90
6654;DHT22;3363;50.942;7.034;2022-07-22T01:16:49;20.10;99.70
6654;DHT22;3363;50.942;7.034;2022-07-22T01:19:17;20.20;99.70
6654;DHT22;3363;50.942;7.034;2022-07-22T01:21:45;20.40;99.10
6654;DHT22;3363;50.942;7.034;2022-07-22T01:24:12;20.20;99.50
6654;DHT22;3363;50.942;7.034;2022-07-22T01:26:39;20.10;99.70
6654;DHT22;3363;50.942;7.034;2022-07-22T01:29:06;20.20;99.90
6654;DHT22;3363;50.942;7.034;2022-07-22T01:31:33;20.20;98.50
6654;DHT22;3363;50.942;7.034;2022-07-22T01:34:00;20.10;99.20
6654;DHT22;3363;50.942;7.034;2022-07-22T01:36:27;20.30;99.40
6654;DHT22;3363;50.942;7.034;2022-07-22T01:38:56;20.00;99.90
6654;DHT22;3363;50.942;7.034;2022-07-22T01:41:23;20.00;99.90
6654;DHT22;3363;50.942;7.034;2022-07-22T01:43:50;20.20;99.90
6654;DHT22;3363;50.942;7.034;2022-07-22T01:46:17;20.20;99.00
6654;DHT22;3363;50.942;7.034;2022-07-22T01:48:44;20.20;99.60
6654;DHT22;3363;50.942;7.034;2022-07-22T01:51:11;20.30;99.00
6654;DHT22;3363;50.942;7.034;2022-07-22T01:53:38;20.20;98.90
6654;DHT22;3363;50.942;7.034;2022-07-22T01:56:06;19.80;99.90
6654;DHT22;3363;50.942;7.034;2022-07-22T01:58:33;20.00;99.90
6654;DHT22;3363;50.942;7.034;2022-07-22T02:01:00;20.00;99.90
6654;DHT22;3363;50.942;7.034;2022-07-22T02:03:27;20.10;99.90
6654;DHT22;3363;50.942;7.034;2022-07-22T02:05:54;20.20;99.90
6654;DHT22;3363;50.942;7.034;2022-07-22T02:08:21;20.10;99.30
6654;DHT22;3363;50.942;7.034;2022-07-22T02:10:48;20.10;99.10
6654;DHT22;3363;50.942;7.034;2022-07-22T02:13:16;20.20;99.20
6654;DHT22;3363;50.942;7.034;2022-07-22T02:15:43;20.20;98.90
6654;DHT22;3363;50.942;7.034;2022-07-22T02:18:11;20.20;98.40
6654;DHT22;3363;50.942;7.034;2022-07-22T02:20:39;20.10;98.90
6654;DHT22;3363;50.942;7.034;2022-07-22T02:23:06;20.10;99.00
6654;DHT22;3363;50.942;7.034;2022-07-22T02:25:34;20.10;98.70
6654;DHT22;3363;50.942;7.034;2022-07-22T02:28:01;20.10;98.90
6654;DHT22;3363;50.942;7.034;2022-07-22T02:30:29;20.10;98.70
6654;DHT22;3363;50.942;7.034;2022-07-22T02:32:57;20.20;99.20
6654;DHT22;3363;50.942;7.034;2022-07-22T02:35:25;20.10;98.90
6654;DHT22;3363;50.942;7.034;2022-07-22T02:37:51;20.20;98.90
6654;DHT22;3363;50.942;7.034;2022-07-22T02:40:18;20.20;98.50
6654;DHT22;3363;50.942;7.034;2022-07-22T02:42:45;20.10;98.80
6654;DHT22;3363;50.942;7.034;2022-07-22T02:45:12;20.10;99.90
6654;DHT22;3363;50.942;7.034;2022-07-22T02:47:48;20.00;99.90
6654;DHT22;3363;50.942;7.034;2022-07-22T02:50:16;20.00;99.30
6654;DHT22;3363;50.942;7.034;2022-07-22T02:52:43;20.10;99.40
6654;DHT22;3363;50.942;7.034;2022-07-22T02:55:10;19.90;99.80
6654;DHT22;3363;50.942;7.034;2022-07-22T02:57:37;19.80;99.90
6654;DHT22;3363;50.942;7.034;2022-07-22T03:00:05;19.70;99.90
6654;DHT22;3363;50.942;7.034;2022-07-22T03:02:33;19.60;99.90
6654;DHT22;3363;50.942;7.034;2022-07-22T03:05:02;19.50;99.90
6654;DHT22;3363;50.942;7.034;2022-07-22T03:07:29;19.50;99.90
6654;DHT22;3363;50.942;7.034;2022-07-22T03:12:24;19.70;99.90
6654;DHT22;3363;50.942;7.034;2022-07-22T03:14:51;19.90;99.90
6654;DHT22;3363;50.942;7.034;2022-07-22T03:17:18;19.80;99.90
6654;DHT22;3363;50.942;7.034;2022-07-22T03:19:44;19.70;99.90
6654;DHT22;3363;50.942;7.034;2022-07-22T03:22:13;19.70;99.90
6654;DHT22;3363;50.942;7.034;2022-07-22T03:24:40;19.80;99.90
6654;DHT22;3363;50.942;7.034;2022-07-22T03:27:06;19.90;99.90
6654;DHT22;3363;50.942;7.034;2022-07-22T03:29:33;20.00;99.90
6654;DHT22;3363;50.942;7.034;2022-07-22T03:32:00;20.00;99.90
6654;DHT22;3363;50.942;7.034;2022-07-22T03:34:27;20.10;99.00
6654;DHT22;3363;50.942;7.034;2022-07-22T03:36:54;19.90;99.90
6654;DHT22;3363;50.942;7.034;2022-07-22T03:39:22;20.00;99.90
6654;DHT22;3363;50.942;7.034;2022-07-22T03:41:49;19.90;99.70
6654;DHT22;3363;50.942;7.034;2022-07-22T03:44:16;20.00;99.40
6654;DHT22;3363;50.942;7.034;2022-07-22T03:46:43;20.10;98.50
6654;DHT22;3363;50.942;7.034;2022-07-22T03:49:10;20.10;97.90
6654;DHT22;3363;50.942;7.034;2022-07-22T03:51:37;20.10;98.30
6654;DHT22;3363;50.942;7.034;2022-07-22T03:54:04;20.00;99.20
6654;DHT22;3363;50.942;7.034;2022-07-22T03:56:32;19.90;99.90
6654;DHT22;3363;50.942;7.034;2022-07-22T03:58:59;19.80;99.90
6654;DHT22;3363;50.942;7.034;2022-07-22T04:01:26;19.80;99.90
6654;DHT22;3363;50.942;7.034;2022-07-22T04:03:53;19.90;99.90
6654;DHT22;3363;50.942;7.034;2022-07-22T04:06:20;19.90;99.90
6654;DHT22;3363;50.942;7.034;2022-07-22T04:08:47;19.90;99.90
6654;DHT22;3363;50.942;7.034;2022-07-22T04:11:14;19.90;99.80
6654;DHT22;3363;50.942;7.034;2022-07-22T04:13:42;20.00;99.40
6654;DHT22;3363;50.942;7.034;2022-07-22T04:16:09;20.00;98.40
6654;DHT22;3363;50.942;7.034;2022-07-22T04:18:36;20.00;97.70
6654;DHT22;3363;50.942;7.034;2022-07-22T04:21:03;20.00;99.90
6654;DHT22;3363;50.942;7.034;2022-07-22T04:23:30;19.90;99.90
6654;DHT22;3363;50.942;7.034;2022-07-22T04:25:57;20.00;99.10
6654;DHT22;3363;50.942;7.034;2022-07-22T04:28:24;20.00;99.90
6654;DHT22;3363;50.942;7.034;2022-07-22T04:30:52;19.80;99.90
6654;DHT22;3363;50.942;7.034;2022-07-22T04:33:19;19.80;99.90
6654;DHT22;3363;50.942;7.034;2022-07-22T04:35:46;19.90;99.90
6654;DHT22;3363;50.942;7.034;2022-07-22T04:38:13;20.00;99.90
6654;DHT22;3363;50.942;7.034;2022-07-22T04:40:42;19.90;99.90
6654;DHT22;3363;50.942;7.034;2022-07-22T04:43:09;19.90;99.90
6654;DHT22;3363;50.942;7.034;2022-07-22T04:45:36;20.00;99.90
6654;DHT22;3363;50.942;7.034;2022-07-22T04:48:04;20.00;99.90
6654;DHT22;3363;50.942;7.034;2022-07-22T04:50:31;20.00;99.90
6654;DHT22;3363;50.942;7.034;2022-07-22T04:52:58;20.00;99.90
6654;DHT22;3363;50.942;7.034;2022-07-22T04:55:25;20.00;99.90
6654;DHT22;3363;50.942;7.034;2022-07-22T04:57:52;20.00;99.90
6654;DHT22;3363;50.942;7.034;2022-07-22T05:00:19;19.90;99.90
6654;DHT22;3363;50.942;7.034;2022-07-22T05:02:47;20.00;99.90
6654;DHT22;3363;50.942;7.034;2022-07-22T05:05:15;20.00;99.90
6654;DHT22;3363;50.942;7.034;2022-07-22T05:07:42;20.00;99.90
6654;DHT22;3363;50.942;7.034;2022-07-22T05:10:09;20.00;99.90
6654;DHT22;3363;50.942;7.034;2022-07-22T05:12:36;20.00;99.90
6654;DHT22;3363;50.942;7.034;2022-07-22T05:15:04;20.00;99.90
6654;DHT22;3363;50.942;7.034;2022-07-22T05:17:31;20.00;99.90
6654;DHT22;3363;50.942;7.034;2022-07-22T05:19:58;19.90;99.90
6654;DHT22;3363;50.942;7.034;2022-07-22T05:22:27;19.90;99.90
6654;DHT22;3363;50.942;7.034;2022-07-22T05:24:54;20.00;99.90
6654;DHT22;3363;50.942;7.034;2022-07-22T05:27:21;19.90;99.90
6654;DHT22;3363;50.942;7.034;2022-07-22T05:29:47;20.00;99.90
6654;DHT22;3363;50.942;7.034;2022-07-22T05:32:14;20.00;99.90
6654;DHT22;3363;50.942;7.034;2022-07-22T05:34:41;20.00;99.90
6654;DHT22;3363;50.942;7.034;2022-07-22T05:37:08;20.00;99.90
6654;DHT22;3363;50.942;7.034;2022-07-22T05:39:37;20.00;99.90
6654;DHT22;3363;50.942;7.034;2022-07-22T05:42:04;20.00;99.90
6654;DHT22;3363;50.942;7.034;2022-07-22T05:44:31;20.00;99.90
6654;DHT22;3363;50.942;7.034;2022-07-22T05:46:58;20.00;99.90
6654;DHT22;3363;50.942;7.034;2022-07-22T05:49:25;20.00;99.90
6654;DHT22;3363;50.942;7.034;2022-07-22T05:51:52;19.90;99.90
6654;DHT22;3363;50.942;7.034;2022-07-22T05:54:19;19.90;99.90
6654;DHT22;3363;50.942;7.034;2022-07-22T05:56:47;19.90;99.90
6654;DHT22;3363;50.942;7.034;2022-07-22T05:59:14;19.90;99.90
6654;DHT22;3363;50.942;7.034;2022-07-22T06:01:41;19.90;99.90
6654;DHT22;3363;50.942;7.034;2022-07-22T06:04:08;19.90;99.90
6654;DHT22;3363;50.942;7.034;2022-07-22T06:06:35;20.00;99.90
6654;DHT22;3363;50.942;7.034;2022-07-22T06:09:02;19.90;99.90
6654;DHT22;3363;50.942;7.034;2022-07-22T06:11:29;19.90;99.90
6654;DHT22;3363;50.942;7.034;2022-07-22T06:13:58;19.90;99.90
6654;DHT22;3363;50.942;7.034;2022-07-22T06:16:24;20.00;99.90
6654;DHT22;3363;50.942;7.034;2022-07-22T06:18:51;19.90;99.90
6654;DHT22;3363;50.942;7.034;2022-07-22T06:21:18;19.90;99.90
6654;DHT22;3363;50.942;7.034;2022-07-22T06:23:45;19.90;99.90
6654;DHT22;3363;50.942;7.034;2022-07-22T06:26:12;19.90;99.90
6654;DHT22;3363;50.942;7.034;2022-07-22T06:28:39;19.90;99.90
6654;DHT22;3363;50.942;7.034;2022-07-22T06:31:07;19.90;99.90
6654;DHT22;3363;50.942;7.034;2022-07-22T06:33:34;19.90;99.90
6654;DHT22;3363;50.942;7.034;2022-07-22T06:36:01;19.90;99.90
6654;DHT22;3363;50.942;7.034;2022-07-22T06:38:28;19.90;99.90
6654;DHT22;3363;50.942;7.034;2022-07-22T06:40:55;19.90;99.90
6654;DHT22;3363;50.942;7.034;2022-07-22T06:43:22;19.90;99.90
6654;DHT22;3363;50.942;7.034;2022-07-22T06:45:49;19.90;99.90
6654;DHT22;3363;50.942;7.034;2022-07-22T06:48:18;19.80;99.90
6654;DHT22;3363;50.942;7.034;2022-07-22T06:50:45;19.80;99.90
6654;DHT22;3363;50.942;7.034;2022-07-22T06:53:12;19.80;99.90
6654;DHT22;3363;50.942;7.034;2022-07-22T06:55:39;19.80;99.90
6654;DHT22;3363;50.942;7.034;2022-07-22T06:58:06;19.80;99.90
6654;DHT22;3363;50.942;7.034;2022-07-22T07:00:32;19.90;99.90
6654;DHT22;3363;50.942;7.034;2022-07-22T07:03:00;19.90;99.90
6654;DHT22;3363;50.942;7.034;2022-07-22T07:05:29;19.90;99.90
6654;DHT22;3363;50.942;7.034;2022-07-22T07:07:55;19.90;99.90
6654;DHT22;3363;50.942;7.034;2022-07-22T07:10:22;19.90;99.90
6654;DHT22;3363;50.942;7.034;2022-07-22T07:12:49;19.90;99.90
6654;DHT22;3363;50.942;7.034;2022-07-22T07:15:16;20.00;99.90
6654;DHT22;3363;50.942;7.034;2022-07-22T07:17:43;19.90;99.90
6654;DHT22;3363;50.942;7.034;2022-07-22T07:20:10;19.90;99.90
6654;DHT22;3363;50.942;7.034;2022-07-22T07:22:39;19.90;99.90
6654;DHT22;3363;50.942;7.034;2022-07-22T07:25:06;19.80;99.90
6654;DHT22;3363;50.942;7.034;2022-07-22T07:27:34;19.70;99.90
6654;DHT22;3363;50.942;7.034;2022-07-22T07:30:02;19.70;99.90
6654;DHT22;3363;50.942;7.034;2022-07-22T07:32:29;19.70;99.90
6654;DHT22;3363;50.942;7.034;2022-07-22T07:34:56;19.70;99.90
6654;DHT22;3363;50.942;7.034;2022-07-22T07:37:23;19.70;99.90
6654;DHT22;3363;50.942;7.034;2022-07-22T07:39:51;19.70;99.90
6654;DHT22;3363;50.942;7.034;2022-07-22T07:42:18;19.70;99.90
6654;DHT22;3363;50.942;7.034;2022-07-22T07:44:45;19.80;99.90
6654;DHT22;3363;50.942;7.034;2022-07-22T07:47:12;19.80;99.90
6654;DHT22;3363;50.942;7.034;2022-07-22T07:49:42;19.80;99.90
6654;DHT22;3363;50.942;7.034;2022-07-22T07:52:10;19.80;99.90
6654;DHT22;3363;50.942;7.034;2022-07-22T07:54:38;19.80;99.90
6654;DHT22;3363;50.942;7.034;2022-07-22T07:57:07;19.80;99.90
6654;DHT22;3363;50.942;7.034;2022-07-22T07:59:35;19.80;99.90
6654;DHT22;3363;50.942;7.034;2022-07-22T08:02:02;19.80;99.90
6654;DHT22;3363;50.942;7.034;2022-07-22T08:04:30;19.80;99.90
6654;DHT22;3363;50.942;7.034;2022-07-22T08:06:57;19.80;99.90
6654;DHT22;3363;50.942;7.034;2022-07-22T08:09:24;19.80;99.90
6654;DHT22;3363;50.942;7.034;2022-07-22T08:11:51;19.80;99.90
6654;DHT22;3363;50.942;7.034;2022-07-22T08:14:19;19.60;99.90
6654;DHT22;3363;50.942;7.034;2022-07-22T08:16:46;19.50;99.90
6654;DHT22;3363;50.942;7.034;2022-07-22T08:19:13;19.40;99.90
6654;DHT22;3363;50.942;7.034;2022-07-22T08:21:40;19.40;99.90
6654;DHT22;3363;50.942;7.034;2022-07-22T08:24:08;19.40;99.90
6654;DHT22;3363;50.942;7.034;2022-07-22T08:26:35;19.50;99.90
6654;DHT22;3363;50.942;7.034;2022-07-22T08:29:02;19.60;99.90
6654;DHT22;3363;50.942;7.034;2022-07-22T08:31:30;19.60;99.90
6654;DHT22;3363;50.942;7.034;2022-07-22T08:34:00;19.70;99.90
6654;DHT22;3363;50.942;7.034;2022-07-22T08:36:27;19.60;99.90
6654;DHT22;3363;50.942;7.034;2022-07-22T08:38:54;19.40;99.90
6654;DHT22;3363;50.942;7.034;2022-07-22T08:41:22;19.40;99.90
6654;DHT22;3363;50.942;7.034;2022-07-22T08:43:50;19.40;99.90
6654;DHT22;3363;50.942;7.034;2022-07-22T08:46:18;19.60;99.90
6654;DHT22;3363;50.942;7.034;2022-07-22T08:48:46;19.60;99.90
6654;DHT22;3363;50.942;7.034;2022-07-22T08:51:13;19.60;99.90
6654;DHT22;3363;50.942;7.034;2022-07-22T08:53:40;19.70;99.90
6654;DHT22;3363;50.942;7.034;2022-07-22T08:56:07;19.50;99.90
6654;DHT22;3363;50.942;7.034;2022-07-22T08:58:34;19.70;99.90
6654;DHT22;3363;50.942;7.034;2022-07-22T09:01:05;19.70;99.90
6654;DHT22;3363;50.942;7.034;2022-07-22T09:03:32;19.80;99.90
6654;DHT22;3363;50.942;7.034;2022-07-22T09:06:01;19.80;99.90
6654;DHT22;3363;50.942;7.034;2022-07-22T09:08:28;19.90;99.90
6654;DHT22;3363;50.942;7.034;2022-07-22T09:13:23;19.90;99.90
6654;DHT22;3363;50.942;7.034;2022-07-22T09:15:51;20.00;99.90
6654;DHT22;3363;50.942;7.034;2022-07-22T09:18:19;20.00;99.90
6654;DHT22;3363;50.942;7.034;2022-07-22T09:20:46;19.90;99.90
6654;DHT22;3363;50.942;7.034;2022-07-22T09:23:15;20.10;99.90
6654;DHT22;3363;50.942;7.034;2022-07-22T09:25:47;19.90;99.90
6654;DHT22;3363;50.942;7.034;2022-07-22T09:28:15;19.80;99.90
6654;DHT22;3363;50.942;7.034;2022-07-22T09:30:47;19.90;99.90
6654;DHT22;3363;50.942;7.034;2022-07-22T09:33:15;20.10;99.90
6654;DHT22;3363;50.942;7.034;2022-07-22T09:36:00;19.90;99.90
6654;DHT22;3363;50.942;7.034;2022-07-22T09:38:29;20.00;99.90
6654;DHT22;3363;50.942;7.034;2022-07-22T09:41:00;20.10;99.90
6654;DHT22;3363;50.942;7.034;2022-07-22T09:43:27;20.10;99.90
6654;DHT22;3363;50.942;7.034;2022-07-22T09:45:59;20.00;99.90
6654;DHT22;3363;50.942;7.034;2022-07-22T09:48:26;20.00;99.90
6654;DHT22;3363;50.942;7.034;2022-07-22T09:50:54;20.10;99.90
6654;DHT22;3363;50.942;7.034;2022-07-22T09:53:22;20.20;99.90
6654;DHT22;3363;50.942;7.034;2022-07-22T09:55:53;20.20;99.90
6654;DHT22;3363;50.942;7.034;2022-07-22T09:58:20;20.10;99.90
6654;DHT22;3363;50.942;7.034;2022-07-22T10:00:47;20.30;99.90
6654;DHT22;3363;50.942;7.034;2022-07-22T10:03:16;20.40;99.90
6654;DHT22;3363;50.942;7.034;2022-07-22T10:05:44;20.50;99.90
6654;DHT22;3363;50.942;7.034;2022-07-22T10:08:11;20.50;99.90
6654;DHT22;3363;50.942;7.034;2022-07-22T10:10:38;20.50;99.90
6654;DHT22;3363;50.942;7.034;2022-07-22T10:13:07;20.60;99.90
6654;DHT22;3363;50.942;7.034;2022-07-22T10:15:37;20.60;99.90
6654;DHT22;3363;50.942;7.034;2022-07-22T10:18:05;20.60;99.90
6654;DHT22;3363;50.942;7.034;2022-07-22T10:20:36;20.80;99.90
6654;DHT22;3363;50.942;7.034;2022-07-22T10:23:06;20.70;99.90
6654;DHT22;3363;50.942;7.034;2022-07-22T10:28:26;20.90;99.90
6654;DHT22;3363;50.942;7.034;2022-07-22T10:33:45;20.90;99.90
6654;DHT22;3363;50.942;7.034;2022-07-22T10:36:15;20.70;99.90
6654;DHT22;3363;50.942;7.034;2022-07-22T10:39:04;20.80;99.90
6654;DHT22;3363;50.942;7.034;2022-07-22T10:41:34;20.50;99.90
6654;DHT22;3363;50.942;7.034;2022-07-22T10:44:03;20.60;99.90
6654;DHT22;3363;50.942;7.034;2022-07-22T10:46:48;20.60;98.80
6654;DHT22;3363;50.942;7.034;2022-07-22T10:49:17;20.60;99.90
6654;DHT22;3363;50.942;7.034;2022-07-22T10:57:44;21.10;99.90
6654;DHT22;3363;50.942;7.034;2022-07-22T11:00:12;21.30;98.20
6654;DHT22;3363;50.942;7.034;2022-07-22T11:02:39;21.30;97.10
6654;DHT22;3363;50.942;7.034;2022-07-22T11:05:07;21.60;94.70
6654;DHT22;3363;50.942;7.034;2022-07-22T11:07:40;21.70;93.80
6654;DHT22;3363;50.942;7.034;2022-07-22T11:10:08;21.70;92.80
6654;DHT22;3363;50.942;7.034;2022-07-22T11:12:36;21.30;92.50
6654;DHT22;3363;50.942;7.034;2022-07-22T11:15:03;21.30;94.80
6654;DHT22;3363;50.942;7.034;2022-07-22T11:17:33;21.60;91.70
6654;DHT22;3363;50.942;7.034;2022-07-22T11:20:01;21.70;90.80
6654;DHT22;3363;50.942;7.034;2022-07-22T11:22:30;21.10;91.50
6654;DHT22;3363;50.942;7.034;2022-07-22T11:24:57;21.40;94.60
6654;DHT22;3363;50.942;7.034;2022-07-22T11:27:26;21.80;93.00
6654;DHT22;3363;50.942;7.034;2022-07-22T11:29:53;21.60;93.80
6654;DHT22;3363;50.942;7.034;2022-07-22T11:32:22;21.40;90.80
6654;DHT22;3363;50.942;7.034;2022-07-22T11:34:50;21.30;94.50
6654;DHT22;3363;50.942;7.034;2022-07-22T11:37:18;21.50;92.90
6654;DHT22;3363;50.942;7.034;2022-07-22T11:39:48;21.70;91.30
6654;DHT22;3363;50.942;7.034;2022-07-22T11:42:15;22.10;90.50
6654;DHT22;3363;50.942;7.034;2022-07-22T11:44:42;22.60;83.80
6654;DHT22;3363;50.942;7.034;2022-07-22T11:47:10;22.60;88.10
6654;DHT22;3363;50.942;7.034;2022-07-22T11:49:37;22.60;81.90
6654;DHT22;3363;50.942;7.034;2022-07-22T11:52:07;22.60;79.80
6654;DHT22;3363;50.942;7.034;2022-07-22T11:54:37;22.40;77.40
6654;DHT22;3363;50.942;7.034;2022-07-22T11:57:05;21.90;77.00
6654;DHT22;3363;50.942;7.034;2022-07-22T11:59:32;21.70;87.60
6654;DHT22;3363;50.942;7.034;2022-07-22T12:02:00;21.90;88.70
6654;DHT22;3363;50.942;7.034;2022-07-22T12:04:28;21.60;72.40
6654;DHT22;3363;50.942;7.034;2022-07-22T12:06:57;21.50;84.30
6654;DHT22;3363;50.942;7.034;2022-07-22T12:09:28;21.70;82.40
6654;DHT22;3363;50.942;7.034;2022-07-22T12:11:57;21.90;80.00
6654;DHT22;3363;50.942;7.034;2022-07-22T12:14:25;22.20;72.80
6654;DHT22;3363;50.942;7.034;2022-07-22T12:16:53;21.80;75.90
6654;DHT22;3363;50.942;7.034;2022-07-22T12:19:53;22.10;78.70
6654;DHT22;3363;50.942;7.034;2022-07-22T12:23:35;22.10;70.50
6654;DHT22;3363;50.942;7.034;2022-07-22T12:26:29;22.20;76.20
6654;DHT22;3363;50.942;7.034;2022-07-22T12:29:29;22.20;77.20
6654;DHT22;3363;50.942;7.034;2022-07-22T12:32:15;22.20;75.90
6654;DHT22;3363;50.942;7.034;2022-07-22T12:37:41;22.30;75.00
6654;DHT22;3363;50.942;7.034;2022-07-22T12:40:19;22.20;66.20
6654;DHT22;3363;50.942;7.034;2022-07-22T12:43:07;22.40;73.00
6654;DHT22;3363;50.942;7.034;2022-07-22T12:45:57;22.70;71.00
6654;DHT22;3363;50.942;7.034;2022-07-22T12:48:49;22.50;71.90
6654;DHT22;3363;50.942;7.034;2022-07-22T12:51:17;22.00;74.80
6654;DHT22;3363;50.942;7.034;2022-07-22T12:53:44;22.10;72.80
6654;DHT22;3363;50.942;7.034;2022-07-22T12:56:11;22.20;74.10
6654;DHT22;3363;50.942;7.034;2022-07-22T12:58:39;21.90;70.80
6654;DHT22;3363;50.942;7.034;2022-07-22T13:01:07;22.20;74.30
6654;DHT22;3363;50.942;7.034;2022-07-22T13:03:34;22.40;74.90
6654;DHT22;3363;50.942;7.034;2022-07-22T13:06:01;22.30;74.60
6654;DHT22;3363;50.942;7.034;2022-07-22T13:08:30;22.50;71.60
6654;DHT22;3363;50.942;7.034;2022-07-22T13:10:57;22.60;71.70
6654;DHT22;3363;50.942;7.034;2022-07-22T13:13:24;22.50;77.30
6654;DHT22;3363;50.942;7.034;2022-07-22T13:15:53;22.60;75.00
6654;DHT22;3363;50.942;7.034;2022-07-22T13:18:20;22.90;70.10
6654;DHT22;3363;50.942;7.034;2022-07-22T13:20:47;23.10;68.00
6654;DHT22;3363;50.942;7.034;2022-07-22T13:23:14;22.90;67.00
6654;DHT22;3363;50.942;7.034;2022-07-22T13:25:41;22.70;69.80
6654;DHT22;3363;50.942;7.034;2022-07-22T13:28:08;22.90;67.70
6654;DHT22;3363;50.942;7.034;2022-07-22T13:30:35;23.00;66.30
6654;DHT22;3363;50.942;7.034;2022-07-22T13:33:04;22.90;68.40
6654;DHT22;3363;50.942;7.034;2022-07-22T13:35:31;22.80;67.70
6654;DHT22;3363;50.942;7.034;2022-07-22T13:37:58;22.70;69.40
6654;DHT22;3363;50.942;7.034;2022-07-22T13:40:25;22.90;67.70
6654;DHT22;3363;50.942;7.034;2022-07-22T13:42:52;22.80;68.40
6654;DHT22;3363;50.942;7.034;2022-07-22T13:45:19;22.80;69.30
6654;DHT22;3363;50.942;7.034;2022-07-22T13:47:46;23.00;67.00
6654;DHT22;3363;50.942;7.034;2022-07-22T13:50:14;23.00;67.80
6654;DHT22;3363;50.942;7.034;2022-07-22T13:52:41;23.00;65.60
6654;DHT22;3363;50.942;7.034;2022-07-22T13:55:11;22.90;67.00
6654;DHT22;3363;50.942;7.034;2022-07-22T13:57:39;22.50;67.70
6654;DHT22;3363;50.942;7.034;2022-07-22T14:00:07;22.50;70.20
6654;DHT22;3363;50.942;7.034;2022-07-22T14:02:35;22.80;69.10
6654;DHT22;3363;50.942;7.034;2022-07-22T14:05:03;23.10;67.60
6654;DHT22;3363;50.942;7.034;2022-07-22T14:07:32;23.10;65.60
6654;DHT22;3363;50.942;7.034;2022-07-22T14:09:59;23.00;67.00
6654;DHT22;3363;50.942;7.034;2022-07-22T14:12:26;23.20;66.10
6654;DHT22;3363;50.942;7.034;2022-07-22T14:14:53;23.20;66.40
6654;DHT22;3363;50.942;7.034;2022-07-22T14:17:20;23.40;66.40
6654;DHT22;3363;50.942;7.034;2022-07-22T14:19:47;23.20;65.20
6654;DHT22;3363;50.942;7.034;2022-07-22T14:22:14;22.60;68.30
6654;DHT22;3363;50.942;7.034;2022-07-22T14:24:42;22.70;70.20
6654;DHT22;3363;50.942;7.034;2022-07-22T14:27:09;23.10;66.20
6654;DHT22;3363;50.942;7.034;2022-07-22T14:29:36;23.30;66.50
6654;DHT22;3363;50.942;7.034;2022-07-22T14:32:03;23.30;67.00
6654;DHT22;3363;50.942;7.034;2022-07-22T14:34:31;23.30;65.30
6654;DHT22;3363;50.942;7.034;2022-07-22T14:36:58;23.20;65.90
6654;DHT22;3363;50.942;7.034;2022-07-22T14:39:24;23.20;64.20
6654;DHT22;3363;50.942;7.034;2022-07-22T14:41:53;23.30;61.10
6654;DHT22;3363;50.942;7.034;2022-07-22T14:44:20;23.30;64.20
6654;DHT22;3363;50.942;7.034;2022-07-22T14:46:47;23.40;61.20
6654;DHT22;3363;50.942;7.034;2022-07-22T14:49:13;23.40;64.00
6654;DHT22;3363;50.942;7.034;2022-07-22T14:51:41;23.20;62.50
6654;DHT22;3363;50.942;7.034;2022-07-22T14:54:08;23.30;66.30
6654;DHT22;3363;50.942;7.034;2022-07-22T14:56:36;23.20;62.50
6654;DHT22;3363;50.942;7.034;2022-07-22T14:59:11;22.90;62.00
6654;DHT22;3363;50.942;7.034;2022-07-22T15:01:43;22.80;63.10
6654;DHT22;3363;50.942;7.034;2022-07-22T15:04:11;22.70;63.30
6654;DHT22;3363;50.942;7.034;2022-07-22T15:06:38;22.60;64.70
6654;DHT22;3363;50.942;7.034;2022-07-22T15:09:04;22.50;63.50
6654;DHT22;3363;50.942;7.034;2022-07-22T15:11:31;22.50;66.50
6654;DHT22;3363;50.942;7.034;2022-07-22T15:14:02;22.60;64.50
6654;DHT22;3363;50.942;7.034;2022-07-22T15:17:07;22.80;62.40
6654;DHT22;3363;50.942;7.034;2022-07-22T15:19:40;22.80;63.70
6654;DHT22;3363;50.942;7.034;2022-07-22T15:22:16;22.90;63.60
6654;DHT22;3363;50.942;7.034;2022-07-22T15:24:48;22.50;66.00
6654;DHT22;3363;50.942;7.034;2022-07-22T15:27:23;22.70;63.10
6654;DHT22;3363;50.942;7.034;2022-07-22T15:29:51;22.80;65.40
6654;DHT22;3363;50.942;7.034;2022-07-22T15:32:18;22.80;67.60
6654;DHT22;3363;50.942;7.034;2022-07-22T15:34:50;22.90;66.20
6654;DHT22;3363;50.942;7.034;2022-07-22T15:37:17;22.80;64.70
6654;DHT22;3363;50.942;7.034;2022-07-22T15:39:46;23.00;62.10
6654;DHT22;3363;50.942;7.034;2022-07-22T15:42:13;22.90;63.50
6654;DHT22;3363;50.942;7.034;2022-07-22T15:44:40;22.70;61.70
6654;DHT22;3363;50.942;7.034;2022-07-22T15:47:08;22.40;61.80
6654;DHT22;3363;50.942;7.034;2022-07-22T15:49:35;22.60;62.50
6654;DHT22;3363;50.942;7.034;2022-07-22T15:52:02;22.70;64.20
6654;DHT22;3363;50.942;7.034;2022-07-22T15:54:30;22.80;64.00
6654;DHT22;3363;50.942;7.034;2022-07-22T15:57:01;22.70;65.10
6654;DHT22;3363;50.942;7.034;2022-07-22T15:59:41;22.90;62.50
6654;DHT22;3363;50.942;7.034;2022-07-22T16:02:11;22.80;64.40
6654;DHT22;3363;50.942;7.034;2022-07-22T16:04:38;22.90;62.30
6654;DHT22;3363;50.942;7.034;2022-07-22T16:07:07;22.80;62.10
6654;DHT22;3363;50.942;7.034;2022-07-22T16:09:35;22.70;63.40
6654;DHT22;3363;50.942;7.034;2022-07-22T16:12:02;22.90;60.90
6654;DHT22;3363;50.942;7.034;2022-07-22T16:14:32;22.80;62.50
6654;DHT22;3363;50.942;7.034;2022-07-22T16:17:00;22.80;63.50
6654;DHT22;3363;50.942;7.034;2022-07-22T16:19:31;22.70;63.40
6654;DHT22;3363;50.942;7.034;2022-07-22T16:22:01;22.70;64.10
6654;DHT22;3363;50.942;7.034;2022-07-22T16:24:33;22.70;63.20
6654;DHT22;3363;50.942;7.034;2022-07-22T16:27:03;22.70;64.40
6654;DHT22;3363;50.942;7.034;2022-07-22T16:29:34;22.50;63.10